This is the latest recevied weather packets stored in our database for station/object OE3MNS-13. If no packets are shown the sender has not sent any weather packets the latest 10 day(s).
| Time | Temp. | Humidity | Pressure | Rain* | Wind** | Luminosity | Snow |
|---|---|---|---|---|---|---|---|
| 1777479638 | 13.89° C | 36% | 1022.6 hPa | 0 mm | - | 124 W/m² | - |
| 1777477241 | 16.11° C | 28% | 1022 hPa | 0 mm | - | 279 W/m² | - |
| 1777464618 | 16.67° C | 25% | 1022.7 hPa | 0 mm | - | 764 W/m² | - |
| 1777464017 | 16.11° C | 27% | 1022.6 hPa | 0 mm | - | 774 W/m² | - |
| 1777461621 | 16.11° C | 27% | 1022.9 hPa | 0 mm | - | 801 W/m² | - |
| 1777461020 | 16.11° C | 27% | 1023 hPa | 0 mm | - | 803 W/m² | - |
| 1777458620 | 15.56° C | 28% | 1023.3 hPa | 0 mm | - | 795 W/m² | - |
| 1777456821 | 15.56° C | 28% | 1023.5 hPa | 0 mm | - | 773 W/m² | - |
| 1777445419 | 7.78° C | 47% | 1023.7 hPa | 0 mm | - | 338 W/m² | - |
| 1777441818 | 5° C | 54% | 1023.7 hPa | 0 mm | - | 157 W/m² | - |
| 1777441221 | 4.44° C | 65% | 1023.6 hPa | 0 mm | - | 130 W/m² | - |
| 1777437020 | 2.78° C | 71% | 1023.2 hPa | 0 mm | - | 28 W/m² | - |
| 1777435240 | 2.78° C | 68% | 1022.8 hPa | 0 mm | - | 11 W/m² | - |
| 1777429521 | 5° C | 62% | 1022.1 hPa | 0 mm | - | 0 W/m² | - |
| 1777421718 | 7.22° C | 56% | 1021.9 hPa | 0 mm | - | 0 W/m² | - |
| 1777415721 | 8.33° C | 52% | 1021.6 hPa | 0 mm | - | 0 W/m² | - |
| 1777415121 | 8.89° C | 52% | 1021.5 hPa | 0 mm | - | 0 W/m² | - |
| 1777414521 | 8.89° C | 54% | 1021.5 hPa | 0 mm | - | 0 W/m² | - |
| 1777412120 | 10.56° C | 48% | 1021.4 hPa | 0 mm | - | 0 W/m² | - |
| 1777410320 | 10.56° C | 49% | 1020.9 hPa | 0 mm | - | 0 W/m² | - |
| 1777406123 | 11.11° C | 49% | 1020.2 hPa | 0 mm | - | 0 W/m² | - |
| 1777405541 | 11.11° C | 49% | 1020.1 hPa | 0 mm | - | 0 W/m² | - |
| 1777404938 | 11.11° C | 48% | 1020 hPa | 0 mm | - | 0 W/m² | - |
| 1777401919 | 12.78° C | 44% | 1019.4 hPa | 0 mm | - | 0 W/m² | - |
| 1777398919 | 14.44° C | 39% | 1018.8 hPa | 0 mm | - | 7 W/m² | - |
* Rain latest hour (hover to see other rain measurements)
** Current wind speed in m/s (hover to see current wind gust speed)